sensor_id;sensor_type;location;lat;lon;timestamp;P1;durP1;ratioP1;P2;durP2;ratioP2
2940;SDS011;1480;51.456;6.670;2023-11-18T00:00:33;31.03;;;14.97;;
2940;SDS011;1480;51.456;6.670;2023-11-18T00:03:01;33.80;;;17.03;;
2940;SDS011;1480;51.456;6.670;2023-11-18T00:05:28;28.90;;;14.13;;
2940;SDS011;1480;51.456;6.670;2023-11-18T00:07:55;34.90;;;16.93;;
2940;SDS011;1480;51.456;6.670;2023-11-18T00:10:21;37.37;;;17.43;;
2940;SDS011;1480;51.456;6.670;2023-11-18T00:12:48;28.83;;;13.77;;
2940;SDS011;1480;51.456;6.670;2023-11-18T00:15:15;43.33;;;18.03;;
2940;SDS011;1480;51.456;6.670;2023-11-18T00:17:43;35.13;;;15.07;;
2940;SDS011;1480;51.456;6.670;2023-11-18T00:20:11;39.73;;;14.60;;
2940;SDS011;1480;51.456;6.670;2023-11-18T00:22:39;29.07;;;13.00;;
2940;SDS011;1480;51.456;6.670;2023-11-18T00:25:06;26.97;;;12.67;;
2940;SDS011;1480;51.456;6.670;2023-11-18T00:27:34;28.57;;;13.77;;
2940;SDS011;1480;51.456;6.670;2023-11-18T00:30:01;31.13;;;13.73;;
2940;SDS011;1480;51.456;6.670;2023-11-18T00:32:30;31.90;;;15.10;;
2940;SDS011;1480;51.456;6.670;2023-11-18T00:34:57;33.73;;;13.10;;
2940;SDS011;1480;51.456;6.670;2023-11-18T00:37:25;32.93;;;14.77;;
2940;SDS011;1480;51.456;6.670;2023-11-18T00:39:52;29.00;;;13.90;;
2940;SDS011;1480;51.456;6.670;2023-11-18T00:42:20;30.77;;;13.23;;
2940;SDS011;1480;51.456;6.670;2023-11-18T00:44:46;30.03;;;14.50;;
2940;SDS011;1480;51.456;6.670;2023-11-18T00:47:13;33.60;;;14.10;;
2940;SDS011;1480;51.456;6.670;2023-11-18T00:49:40;27.70;;;13.60;;
2940;SDS011;1480;51.456;6.670;2023-11-18T00:52:06;27.43;;;13.87;;
2940;SDS011;1480;51.456;6.670;2023-11-18T00:54:35;25.27;;;14.20;;
2940;SDS011;1480;51.456;6.670;2023-11-18T00:57:02;32.70;;;15.57;;
2940;SDS011;1480;51.456;6.670;2023-11-18T00:59:29;39.00;;;17.27;;
2940;SDS011;1480;51.456;6.670;2023-11-18T01:01:55;47.70;;;19.40;;
2940;SDS011;1480;51.456;6.670;2023-11-18T01:04:22;43.93;;;20.37;;
2940;SDS011;1480;51.456;6.670;2023-11-18T01:06:51;43.67;;;18.13;;
2940;SDS011;1480;51.456;6.670;2023-11-18T01:09:17;42.50;;;18.40;;
2940;SDS011;1480;51.456;6.670;2023-11-18T01:11:46;38.00;;;16.27;;
2940;SDS011;1480;51.456;6.670;2023-11-18T01:14:12;40.50;;;16.00;;
2940;SDS011;1480;51.456;6.670;2023-11-18T01:16:39;35.90;;;16.73;;
2940;SDS011;1480;51.456;6.670;2023-11-18T01:19:06;38.83;;;16.07;;
2940;SDS011;1480;51.456;6.670;2023-11-18T01:21:34;42.70;;;17.47;;
2940;SDS011;1480;51.456;6.670;2023-11-18T01:24:02;33.83;;;14.97;;
2940;SDS011;1480;51.456;6.670;2023-11-18T01:26:29;29.43;;;13.33;;
2940;SDS011;1480;51.456;6.670;2023-11-18T01:28:57;32.70;;;14.80;;
2940;SDS011;1480;51.456;6.670;2023-11-18T01:31:23;38.47;;;15.90;;
2940;SDS011;1480;51.456;6.670;2023-11-18T01:33:50;27.50;;;13.30;;
2940;SDS011;1480;51.456;6.670;2023-11-18T01:36:17;48.13;;;15.20;;
2940;SDS011;1480;51.456;6.670;2023-11-18T01:38:44;32.00;;;12.53;;
2940;SDS011;1480;51.456;6.670;2023-11-18T01:41:11;26.90;;;13.53;;
2940;SDS011;1480;51.456;6.670;2023-11-18T01:43:38;36.03;;;14.40;;
2940;SDS011;1480;51.456;6.670;2023-11-18T01:46:07;30.00;;;12.57;;
2940;SDS011;1480;51.456;6.670;2023-11-18T01:48:35;31.50;;;13.50;;
2940;SDS011;1480;51.456;6.670;2023-11-18T01:51:03;33.57;;;12.83;;
2940;SDS011;1480;51.456;6.670;2023-11-18T01:53:31;34.00;;;13.13;;
2940;SDS011;1480;51.456;6.670;2023-11-18T01:55:58;33.33;;;15.20;;
2940;SDS011;1480;51.456;6.670;2023-11-18T01:58:26;30.97;;;11.47;;
2940;SDS011;1480;51.456;6.670;2023-11-18T02:00:52;35.23;;;14.40;;
2940;SDS011;1480;51.456;6.670;2023-11-18T02:03:21;27.53;;;12.43;;
2940;SDS011;1480;51.456;6.670;2023-11-18T02:05:48;32.20;;;14.03;;
2940;SDS011;1480;51.456;6.670;2023-11-18T02:08:15;28.13;;;12.27;;
2940;SDS011;1480;51.456;6.670;2023-11-18T02:10:45;29.57;;;13.73;;
2940;SDS011;1480;51.456;6.670;2023-11-18T02:13:18;28.97;;;13.20;;
2940;SDS011;1480;51.456;6.670;2023-11-18T02:15:51;22.73;;;10.87;;
2940;SDS011;1480;51.456;6.670;2023-11-18T02:18:20;32.10;;;10.97;;
2940;SDS011;1480;51.456;6.670;2023-11-18T02:20:48;31.17;;;12.60;;
2940;SDS011;1480;51.456;6.670;2023-11-18T02:23:16;30.73;;;13.30;;
2940;SDS011;1480;51.456;6.670;2023-11-18T02:25:45;30.37;;;13.47;;
2940;SDS011;1480;51.456;6.670;2023-11-18T02:28:13;36.33;;;13.60;;
2940;SDS011;1480;51.456;6.670;2023-11-18T02:30:40;33.13;;;13.20;;
2940;SDS011;1480;51.456;6.670;2023-11-18T02:33:10;29.30;;;12.90;;
2940;SDS011;1480;51.456;6.670;2023-11-18T02:35:48;33.63;;;13.87;;
2940;SDS011;1480;51.456;6.670;2023-11-18T02:38:18;34.43;;;13.50;;
2940;SDS011;1480;51.456;6.670;2023-11-18T02:40:48;28.73;;;13.23;;
2940;SDS011;1480;51.456;6.670;2023-11-18T02:43:18;35.60;;;13.50;;
2940;SDS011;1480;51.456;6.670;2023-11-18T02:45:45;32.97;;;12.23;;
2940;SDS011;1480;51.456;6.670;2023-11-18T02:48:13;37.93;;;13.90;;
2940;SDS011;1480;51.456;6.670;2023-11-18T02:50:40;36.93;;;14.27;;
2940;SDS011;1480;51.456;6.670;2023-11-18T02:53:08;30.20;;;15.77;;
2940;SDS011;1480;51.456;6.670;2023-11-18T02:55:35;31.53;;;14.03;;
2940;SDS011;1480;51.456;6.670;2023-11-18T02:58:03;25.60;;;12.13;;
2940;SDS011;1480;51.456;6.670;2023-11-18T03:00:30;33.77;;;13.80;;
2940;SDS011;1480;51.456;6.670;2023-11-18T03:02:56;31.13;;;11.73;;
2940;SDS011;1480;51.456;6.670;2023-11-18T03:05:23;24.80;;;11.07;;
2940;SDS011;1480;51.456;6.670;2023-11-18T03:07:52;27.87;;;13.13;;
2940;SDS011;1480;51.456;6.670;2023-11-18T03:10:22;36.80;;;13.70;;
2940;SDS011;1480;51.456;6.670;2023-11-18T03:12:49;36.00;;;13.17;;
2940;SDS011;1480;51.456;6.670;2023-11-18T03:15:18;38.00;;;14.53;;
2940;SDS011;1480;51.456;6.670;2023-11-18T03:17:46;25.87;;;12.43;;
2940;SDS011;1480;51.456;6.670;2023-11-18T03:20:15;24.97;;;11.73;;
2940;SDS011;1480;51.456;6.670;2023-11-18T03:22:43;27.13;;;13.47;;
2940;SDS011;1480;51.456;6.670;2023-11-18T03:25:11;25.03;;;12.30;;
2940;SDS011;1480;51.456;6.670;2023-11-18T03:27:38;29.70;;;12.33;;
2940;SDS011;1480;51.456;6.670;2023-11-18T03:30:05;29.93;;;13.37;;
2940;SDS011;1480;51.456;6.670;2023-11-18T03:32:35;21.73;;;10.47;;
2940;SDS011;1480;51.456;6.670;2023-11-18T03:35:02;24.10;;;12.27;;
2940;SDS011;1480;51.456;6.670;2023-11-18T03:37:29;34.67;;;12.30;;
2940;SDS011;1480;51.456;6.670;2023-11-18T03:39:56;29.00;;;13.83;;
2940;SDS011;1480;51.456;6.670;2023-11-18T03:42:23;36.77;;;14.97;;
2940;SDS011;1480;51.456;6.670;2023-11-18T03:44:49;32.00;;;13.23;;
2940;SDS011;1480;51.456;6.670;2023-11-18T03:47:16;28.17;;;14.83;;
2940;SDS011;1480;51.456;6.670;2023-11-18T03:49:44;39.20;;;14.13;;
2940;SDS011;1480;51.456;6.670;2023-11-18T03:52:11;31.13;;;14.70;;
2940;SDS011;1480;51.456;6.670;2023-11-18T03:54:37;30.60;;;14.90;;
2940;SDS011;1480;51.456;6.670;2023-11-18T03:57:04;31.37;;;13.63;;
2940;SDS011;1480;51.456;6.670;2023-11-18T03:59:31;30.63;;;13.90;;
2940;SDS011;1480;51.456;6.670;2023-11-18T04:01:58;28.57;;;12.30;;
2940;SDS011;1480;51.456;6.670;2023-11-18T04:04:24;31.63;;;14.73;;
2940;SDS011;1480;51.456;6.670;2023-11-18T04:06:52;28.13;;;14.33;;
2940;SDS011;1480;51.456;6.670;2023-11-18T04:09:20;24.20;;;12.57;;
2940;SDS011;1480;51.456;6.670;2023-11-18T04:11:46;33.23;;;13.60;;
2940;SDS011;1480;51.456;6.670;2023-11-18T04:14:13;25.70;;;13.03;;
2940;SDS011;1480;51.456;6.670;2023-11-18T04:16:40;32.63;;;13.30;;
2940;SDS011;1480;51.456;6.670;2023-11-18T04:19:07;27.97;;;13.30;;
2940;SDS011;1480;51.456;6.670;2023-11-18T04:21:34;28.20;;;12.90;;
2940;SDS011;1480;51.456;6.670;2023-11-18T04:24:02;28.43;;;13.20;;
2940;SDS011;1480;51.456;6.670;2023-11-18T04:26:30;26.37;;;14.37;;
2940;SDS011;1480;51.456;6.670;2023-11-18T04:28:57;27.30;;;14.00;;
2940;SDS011;1480;51.456;6.670;2023-11-18T04:31:24;31.13;;;13.47;;
2940;SDS011;1480;51.456;6.670;2023-11-18T04:33:51;31.90;;;13.90;;
2940;SDS011;1480;51.456;6.670;2023-11-18T04:36:21;28.37;;;12.37;;
2940;SDS011;1480;51.456;6.670;2023-11-18T04:38:48;29.83;;;13.27;;
2940;SDS011;1480;51.456;6.670;2023-11-18T04:41:16;35.80;;;15.93;;
2940;SDS011;1480;51.456;6.670;2023-11-18T04:43:42;22.13;;;12.50;;
2940;SDS011;1480;51.456;6.670;2023-11-18T04:46:09;25.73;;;12.53;;
2940;SDS011;1480;51.456;6.670;2023-11-18T04:48:36;26.33;;;13.43;;
2940;SDS011;1480;51.456;6.670;2023-11-18T04:51:03;27.57;;;13.10;;
2940;SDS011;1480;51.456;6.670;2023-11-18T04:53:30;29.53;;;11.77;;
2940;SDS011;1480;51.456;6.670;2023-11-18T04:55:59;27.73;;;12.50;;
2940;SDS011;1480;51.456;6.670;2023-11-18T04:58:27;28.43;;;11.77;;
2940;SDS011;1480;51.456;6.670;2023-11-18T05:00:53;22.47;;;11.67;;
2940;SDS011;1480;51.456;6.670;2023-11-18T05:03:20;24.63;;;12.20;;
2940;SDS011;1480;51.456;6.670;2023-11-18T05:05:49;26.00;;;11.07;;
2940;SDS011;1480;51.456;6.670;2023-11-18T05:08:18;22.20;;;12.83;;
2940;SDS011;1480;51.456;6.670;2023-11-18T05:10:46;21.07;;;11.93;;
2940;SDS011;1480;51.456;6.670;2023-11-18T05:13:13;26.37;;;13.20;;
2940;SDS011;1480;51.456;6.670;2023-11-18T05:15:43;34.40;;;12.90;;
2940;SDS011;1480;51.456;6.670;2023-11-18T05:18:11;18.33;;;10.37;;
2940;SDS011;1480;51.456;6.670;2023-11-18T05:20:39;25.73;;;13.73;;
2940;SDS011;1480;51.456;6.670;2023-11-18T05:23:06;19.63;;;10.30;;
2940;SDS011;1480;51.456;6.670;2023-11-18T05:25:35;25.77;;;11.17;;
2940;SDS011;1480;51.456;6.670;2023-11-18T05:28:02;20.50;;;11.03;;
2940;SDS011;1480;51.456;6.670;2023-11-18T05:30:30;30.37;;;12.37;;
2940;SDS011;1480;51.456;6.670;2023-11-18T05:32:58;21.67;;;11.07;;
2940;SDS011;1480;51.456;6.670;2023-11-18T05:35:25;19.73;;;9.07;;
2940;SDS011;1480;51.456;6.670;2023-11-18T05:37:53;24.90;;;13.50;;
2940;SDS011;1480;51.456;6.670;2023-11-18T05:40:20;22.00;;;11.67;;
2940;SDS011;1480;51.456;6.670;2023-11-18T05:42:48;28.30;;;12.97;;
2940;SDS011;1480;51.456;6.670;2023-11-18T05:45:17;17.73;;;11.47;;
2940;SDS011;1480;51.456;6.670;2023-11-18T05:47:53;31.97;;;12.00;;
2940;SDS011;1480;51.456;6.670;2023-11-18T05:50:22;21.70;;;11.33;;
2940;SDS011;1480;51.456;6.670;2023-11-18T05:52:49;29.13;;;12.50;;
2940;SDS011;1480;51.456;6.670;2023-11-18T05:55:16;29.23;;;12.23;;
2940;SDS011;1480;51.456;6.670;2023-11-18T05:57:43;24.53;;;11.40;;
2940;SDS011;1480;51.456;6.670;2023-11-18T06:00:10;25.00;;;10.93;;
2940;SDS011;1480;51.456;6.670;2023-11-18T06:02:40;28.27;;;12.23;;
2940;SDS011;1480;51.456;6.670;2023-11-18T06:05:07;29.47;;;11.00;;
2940;SDS011;1480;51.456;6.670;2023-11-18T06:07:36;27.07;;;10.60;;
2940;SDS011;1480;51.456;6.670;2023-11-18T06:10:05;18.37;;;10.43;;
2940;SDS011;1480;51.456;6.670;2023-11-18T06:12:33;22.80;;;10.90;;
2940;SDS011;1480;51.456;6.670;2023-11-18T06:15:02;25.67;;;11.60;;
2940;SDS011;1480;51.456;6.670;2023-11-18T06:17:29;27.43;;;11.63;;
2940;SDS011;1480;51.456;6.670;2023-11-18T06:19:56;22.90;;;11.67;;
2940;SDS011;1480;51.456;6.670;2023-11-18T06:22:23;19.53;;;9.77;;
2940;SDS011;1480;51.456;6.670;2023-11-18T06:24:51;20.17;;;10.43;;
2940;SDS011;1480;51.456;6.670;2023-11-18T06:27:18;18.93;;;9.83;;
2940;SDS011;1480;51.456;6.670;2023-11-18T06:29:48;27.20;;;11.37;;
2940;SDS011;1480;51.456;6.670;2023-11-18T06:32:15;17.13;;;9.80;;
2940;SDS011;1480;51.456;6.670;2023-11-18T06:34:42;18.93;;;10.40;;
2940;SDS011;1480;51.456;6.670;2023-11-18T06:37:09;20.70;;;11.57;;
2940;SDS011;1480;51.456;6.670;2023-11-18T06:39:40;14.37;;;8.70;;
2940;SDS011;1480;51.456;6.670;2023-11-18T06:42:10;27.70;;;12.57;;
2940;SDS011;1480;51.456;6.670;2023-11-18T06:44:37;32.40;;;12.63;;
2940;SDS011;1480;51.456;6.670;2023-11-18T06:47:04;23.37;;;11.03;;
2940;SDS011;1480;51.456;6.670;2023-11-18T06:49:31;23.90;;;12.03;;
2940;SDS011;1480;51.456;6.670;2023-11-18T06:51:59;24.70;;;11.60;;
2940;SDS011;1480;51.456;6.670;2023-11-18T06:54:28;26.57;;;12.80;;
2940;SDS011;1480;51.456;6.670;2023-11-18T06:56:55;25.03;;;12.97;;
2940;SDS011;1480;51.456;6.670;2023-11-18T06:59:23;23.83;;;11.20;;
2940;SDS011;1480;51.456;6.670;2023-11-18T07:01:50;24.33;;;11.20;;
2940;SDS011;1480;51.456;6.670;2023-11-18T07:04:16;25.23;;;11.73;;
2940;SDS011;1480;51.456;6.670;2023-11-18T07:06:44;27.57;;;12.40;;
2940;SDS011;1480;51.456;6.670;2023-11-18T07:09:11;29.80;;;10.70;;
2940;SDS011;1480;51.456;6.670;2023-11-18T07:11:42;24.00;;;12.03;;
2940;SDS011;1480;51.456;6.670;2023-11-18T07:14:09;20.87;;;11.30;;
2940;SDS011;1480;51.456;6.670;2023-11-18T07:16:38;20.97;;;9.90;;
2940;SDS011;1480;51.456;6.670;2023-11-18T07:19:05;16.57;;;9.90;;
2940;SDS011;1480;51.456;6.670;2023-11-18T07:21:32;21.83;;;11.03;;
2940;SDS011;1480;51.456;6.670;2023-11-18T07:23:59;18.40;;;11.57;;
2940;SDS011;1480;51.456;6.670;2023-11-18T07:26:27;25.60;;;12.20;;
2940;SDS011;1480;51.456;6.670;2023-11-18T07:28:54;21.30;;;11.33;;
2940;SDS011;1480;51.456;6.670;2023-11-18T07:31:21;19.73;;;10.77;;
2940;SDS011;1480;51.456;6.670;2023-11-18T07:33:49;21.40;;;9.53;;
2940;SDS011;1480;51.456;6.670;2023-11-18T07:36:16;18.00;;;10.60;;
2940;SDS011;1480;51.456;6.670;2023-11-18T07:38:45;17.00;;;10.33;;
2940;SDS011;1480;51.456;6.670;2023-11-18T07:41:11;18.53;;;9.70;;
2940;SDS011;1480;51.456;6.670;2023-11-18T07:43:48;21.63;;;10.80;;
2940;SDS011;1480;51.456;6.670;2023-11-18T07:46:16;13.73;;;8.13;;
2940;SDS011;1480;51.456;6.670;2023-11-18T07:48:42;24.57;;;11.83;;
2940;SDS011;1480;51.456;6.670;2023-11-18T07:51:10;21.47;;;10.77;;
2940;SDS011;1480;51.456;6.670;2023-11-18T07:53:39;26.87;;;11.77;;
2940;SDS011;1480;51.456;6.670;2023-11-18T07:56:07;23.70;;;11.17;;
2940;SDS011;1480;51.456;6.670;2023-11-18T07:58:36;22.20;;;11.67;;
2940;SDS011;1480;51.456;6.670;2023-11-18T08:01:03;21.53;;;10.97;;
2940;SDS011;1480;51.456;6.670;2023-11-18T08:03:32;23.00;;;9.13;;
2940;SDS011;1480;51.456;6.670;2023-11-18T08:05:59;21.10;;;10.70;;
2940;SDS011;1480;51.456;6.670;2023-11-18T08:08:28;16.20;;;9.30;;
2940;SDS011;1480;51.456;6.670;2023-11-18T08:10:55;22.43;;;10.30;;
2940;SDS011;1480;51.456;6.670;2023-11-18T08:13:21;20.60;;;10.10;;
2940;SDS011;1480;51.456;6.670;2023-11-18T08:15:48;20.83;;;9.27;;
2940;SDS011;1480;51.456;6.670;2023-11-18T08:18:15;17.70;;;9.60;;
2940;SDS011;1480;51.456;6.670;2023-11-18T08:20:43;24.60;;;11.57;;
2940;SDS011;1480;51.456;6.670;2023-11-18T08:23:10;23.70;;;9.67;;
2940;SDS011;1480;51.456;6.670;2023-11-18T08:25:38;16.10;;;9.23;;
2940;SDS011;1480;51.456;6.670;2023-11-18T08:28:05;17.73;;;11.13;;
2940;SDS011;1480;51.456;6.670;2023-11-18T08:30:33;17.07;;;10.27;;
2940;SDS011;1480;51.456;6.670;2023-11-18T08:33:00;16.87;;;10.53;;
2940;SDS011;1480;51.456;6.670;2023-11-18T08:35:28;22.40;;;11.00;;
2940;SDS011;1480;51.456;6.670;2023-11-18T08:37:56;16.10;;;9.00;;
2940;SDS011;1480;51.456;6.670;2023-11-18T08:40:25;25.10;;;11.10;;
2940;SDS011;1480;51.456;6.670;2023-11-18T08:42:53;18.17;;;9.03;;
2940;SDS011;1480;51.456;6.670;2023-11-18T08:45:22;18.50;;;9.67;;
2940;SDS011;1480;51.456;6.670;2023-11-18T08:47:52;15.87;;;9.03;;
2940;SDS011;1480;51.456;6.670;2023-11-18T08:50:20;19.50;;;9.80;;
2940;SDS011;1480;51.456;6.670;2023-11-18T08:52:49;22.47;;;12.10;;
2940;SDS011;1480;51.456;6.670;2023-11-18T08:55:22;20.60;;;10.77;;
2940;SDS011;1480;51.456;6.670;2023-11-18T08:58:05;13.20;;;9.93;;
2940;SDS011;1480;51.456;6.670;2023-11-18T09:00:41;24.30;;;12.13;;
2940;SDS011;1480;51.456;6.670;2023-11-18T09:03:19;22.10;;;11.73;;
2940;SDS011;1480;51.456;6.670;2023-11-18T09:05:54;22.87;;;11.50;;
2940;SDS011;1480;51.456;6.670;2023-11-18T09:08:25;21.93;;;11.57;;
2940;SDS011;1480;51.456;6.670;2023-11-18T09:10:52;25.93;;;11.27;;
2940;SDS011;1480;51.456;6.670;2023-11-18T09:13:21;17.27;;;10.80;;
2940;SDS011;1480;51.456;6.670;2023-11-18T09:15:50;23.47;;;11.97;;
2940;SDS011;1480;51.456;6.670;2023-11-18T09:18:17;16.93;;;10.27;;
2940;SDS011;1480;51.456;6.670;2023-11-18T09:20:45;15.13;;;8.13;;
2940;SDS011;1480;51.456;6.670;2023-11-18T09:23:12;21.63;;;9.97;;
2940;SDS011;1480;51.456;6.670;2023-11-18T09:25:41;26.63;;;11.17;;
2940;SDS011;1480;51.456;6.670;2023-11-18T09:28:12;27.27;;;11.27;;
2940;SDS011;1480;51.456;6.670;2023-11-18T09:30:41;22.30;;;10.03;;
2940;SDS011;1480;51.456;6.670;2023-11-18T09:33:17;26.23;;;11.60;;
2940;SDS011;1480;51.456;6.670;2023-11-18T09:35:53;19.67;;;10.30;;
2940;SDS011;1480;51.456;6.670;2023-11-18T09:38:24;32.80;;;11.60;;
2940;SDS011;1480;51.456;6.670;2023-11-18T09:40:54;20.83;;;11.53;;
2940;SDS011;1480;51.456;6.670;2023-11-18T09:43:21;20.23;;;9.07;;
2940;SDS011;1480;51.456;6.670;2023-11-18T09:45:52;18.60;;;9.80;;
2940;SDS011;1480;51.456;6.670;2023-11-18T09:48:21;20.43;;;9.07;;
2940;SDS011;1480;51.456;6.670;2023-11-18T09:50:51;13.40;;;7.50;;
2940;SDS011;1480;51.456;6.670;2023-11-18T09:53:18;20.00;;;9.27;;
2940;SDS011;1480;51.456;6.670;2023-11-18T09:55:49;16.53;;;7.77;;
2940;SDS011;1480;51.456;6.670;2023-11-18T09:58:20;16.73;;;8.43;;
2940;SDS011;1480;51.456;6.670;2023-11-18T10:00:50;17.83;;;9.13;;
2940;SDS011;1480;51.456;6.670;2023-11-18T10:03:23;20.70;;;8.60;;
2940;SDS011;1480;51.456;6.670;2023-11-18T10:05:51;17.73;;;10.10;;
2940;SDS011;1480;51.456;6.670;2023-11-18T10:08:20;18.23;;;8.60;;
2940;SDS011;1480;51.456;6.670;2023-11-18T10:10:51;16.00;;;7.20;;
2940;SDS011;1480;51.456;6.670;2023-11-18T10:13:30;15.70;;;7.70;;
2940;SDS011;1480;51.456;6.670;2023-11-18T10:16:02;17.60;;;8.03;;
2940;SDS011;1480;51.456;6.670;2023-11-18T10:18:30;19.47;;;7.57;;
2940;SDS011;1480;51.456;6.670;2023-11-18T10:21:00;11.00;;;7.63;;
2940;SDS011;1480;51.456;6.670;2023-11-18T10:23:29;16.77;;;7.70;;
2940;SDS011;1480;51.456;6.670;2023-11-18T10:25:59;11.70;;;6.50;;
2940;SDS011;1480;51.456;6.670;2023-11-18T10:28:26;12.07;;;6.80;;
2940;SDS011;1480;51.456;6.670;2023-11-18T10:30:54;10.77;;;6.83;;
2940;SDS011;1480;51.456;6.670;2023-11-18T10:33:24;12.13;;;7.53;;
2940;SDS011;1480;51.456;6.670;2023-11-18T10:35:55;15.87;;;5.87;;
2940;SDS011;1480;51.456;6.670;2023-11-18T10:38:22;10.90;;;6.30;;
2940;SDS011;1480;51.456;6.670;2023-11-18T10:40:54;14.87;;;6.87;;
2940;SDS011;1480;51.456;6.670;2023-11-18T10:43:21;9.30;;;5.90;;
2940;SDS011;1480;51.456;6.670;2023-11-18T10:45:50;10.20;;;6.50;;
2940;SDS011;1480;51.456;6.670;2023-11-18T10:48:21;13.07;;;6.47;;
2940;SDS011;1480;51.456;6.670;2023-11-18T10:50:51;10.33;;;7.20;;
2940;SDS011;1480;51.456;6.670;2023-11-18T10:53:19;14.93;;;7.50;;
2940;SDS011;1480;51.456;6.670;2023-11-18T10:55:46;9.97;;;6.20;;
2940;SDS011;1480;51.456;6.670;2023-11-18T10:58:13;13.70;;;7.37;;
2940;SDS011;1480;51.456;6.670;2023-11-18T11:00:47;13.37;;;6.20;;
2940;SDS011;1480;51.456;6.670;2023-11-18T11:03:15;12.63;;;7.27;;
2940;SDS011;1480;51.456;6.670;2023-11-18T11:05:43;13.47;;;7.40;;
2940;SDS011;1480;51.456;6.670;2023-11-18T11:08:12;19.53;;;9.33;;
2940;SDS011;1480;51.456;6.670;2023-11-18T11:10:41;11.67;;;6.60;;
2940;SDS011;1480;51.456;6.670;2023-11-18T11:13:08;14.77;;;7.20;;
2940;SDS011;1480;51.456;6.670;2023-11-18T11:15:42;17.23;;;8.20;;
2940;SDS011;1480;51.456;6.670;2023-11-18T11:18:11;9.80;;;5.20;;
2940;SDS011;1480;51.456;6.670;2023-11-18T11:20:51;15.33;;;7.43;;
2940;SDS011;1480;51.456;6.670;2023-11-18T11:23:25;12.83;;;7.30;;
2940;SDS011;1480;51.456;6.670;2023-11-18T11:26:01;13.80;;;6.43;;
2940;SDS011;1480;51.456;6.670;2023-11-18T11:28:32;13.03;;;7.60;;
2940;SDS011;1480;51.456;6.670;2023-11-18T11:31:08;10.10;;;6.07;;
2940;SDS011;1480;51.456;6.670;2023-11-18T11:33:43;10.53;;;6.40;;
2940;SDS011;1480;51.456;6.670;2023-11-18T11:36:11;8.80;;;6.33;;
2940;SDS011;1480;51.456;6.670;2023-11-18T11:38:42;12.50;;;5.70;;
2940;SDS011;1480;51.456;6.670;2023-11-18T11:41:11;10.97;;;5.30;;
2940;SDS011;1480;51.456;6.670;2023-11-18T11:43:45;11.77;;;6.80;;
2940;SDS011;1480;51.456;6.670;2023-11-18T11:46:12;12.40;;;7.87;;
2940;SDS011;1480;51.456;6.670;2023-11-18T11:48:39;12.83;;;7.70;;
2940;SDS011;1480;51.456;6.670;2023-11-18T11:51:16;9.30;;;6.10;;
2940;SDS011;1480;51.456;6.670;2023-11-18T11:53:50;14.30;;;6.90;;
2940;SDS011;1480;51.456;6.670;2023-11-18T11:56:19;14.00;;;6.83;;
2940;SDS011;1480;51.456;6.670;2023-11-18T11:58:49;11.03;;;5.87;;
2940;SDS011;1480;51.456;6.670;2023-11-18T12:01:22;13.43;;;6.47;;
2940;SDS011;1480;51.456;6.670;2023-11-18T12:03:56;8.97;;;5.80;;
2940;SDS011;1480;51.456;6.670;2023-11-18T12:06:25;12.60;;;6.57;;
2940;SDS011;1480;51.456;6.670;2023-11-18T12:08:54;9.57;;;5.60;;
2940;SDS011;1480;51.456;6.670;2023-11-18T12:11:22;9.60;;;6.23;;
2940;SDS011;1480;51.456;6.670;2023-11-18T12:14:02;13.90;;;7.10;;
2940;SDS011;1480;51.456;6.670;2023-11-18T12:19:32;11.50;;;6.73;;
2940;SDS011;1480;51.456;6.670;2023-11-18T12:22:10;12.57;;;6.50;;
2940;SDS011;1480;51.456;6.670;2023-11-18T12:24:45;9.73;;;7.00;;
2940;SDS011;1480;51.456;6.670;2023-11-18T12:30:20;8.77;;;6.07;;
2940;SDS011;1480;51.456;6.670;2023-11-18T12:33:06;10.07;;;5.63;;
2940;SDS011;1480;51.456;6.670;2023-11-18T12:35:37;8.33;;;5.73;;
2940;SDS011;1480;51.456;6.670;2023-11-18T12:38:25;10.93;;;7.63;;
2940;SDS011;1480;51.456;6.670;2023-11-18T12:41:01;9.97;;;6.37;;
2940;SDS011;1480;51.456;6.670;2023-11-18T12:43:39;17.70;;;6.83;;
2940;SDS011;1480;51.456;6.670;2023-11-18T12:49:15;8.60;;;6.90;;
2940;SDS011;1480;51.456;6.670;2023-11-18T12:51:44;11.67;;;6.90;;
2940;SDS011;1480;51.456;6.670;2023-11-18T12:54:12;10.60;;;6.57;;
2940;SDS011;1480;51.456;6.670;2023-11-18T12:56:40;10.73;;;6.57;;
2940;SDS011;1480;51.456;6.670;2023-11-18T12:59:09;9.73;;;6.23;;
2940;SDS011;1480;51.456;6.670;2023-11-18T13:01:38;10.93;;;6.77;;
2940;SDS011;1480;51.456;6.670;2023-11-18T13:04:07;9.17;;;6.13;;
2940;SDS011;1480;51.456;6.670;2023-11-18T13:06:33;18.00;;;6.27;;
2940;SDS011;1480;51.456;6.670;2023-11-18T13:09:00;8.70;;;5.43;;
2940;SDS011;1480;51.456;6.670;2023-11-18T13:11:31;10.43;;;4.30;;
2940;SDS011;1480;51.456;6.670;2023-11-18T13:14:00;9.57;;;5.90;;
2940;SDS011;1480;51.456;6.670;2023-11-18T13:16:28;8.07;;;4.77;;
2940;SDS011;1480;51.456;6.670;2023-11-18T13:18:55;8.97;;;5.63;;
2940;SDS011;1480;51.456;6.670;2023-11-18T13:21:21;12.90;;;6.23;;
2940;SDS011;1480;51.456;6.670;2023-11-18T13:23:52;9.80;;;5.63;;
2940;SDS011;1480;51.456;6.670;2023-11-18T13:26:19;10.07;;;6.30;;
2940;SDS011;1480;51.456;6.670;2023-11-18T13:28:47;6.97;;;4.50;;
2940;SDS011;1480;51.456;6.670;2023-11-18T13:31:15;6.17;;;4.57;;
2940;SDS011;1480;51.456;6.670;2023-11-18T13:33:43;9.90;;;6.20;;
2940;SDS011;1480;51.456;6.670;2023-11-18T13:36:10;12.23;;;6.83;;
2940;SDS011;1480;51.456;6.670;2023-11-18T13:38:37;7.73;;;5.10;;
2940;SDS011;1480;51.456;6.670;2023-11-18T13:41:04;9.20;;;4.73;;
2940;SDS011;1480;51.456;6.670;2023-11-18T13:43:43;6.60;;;4.77;;
2940;SDS011;1480;51.456;6.670;2023-11-18T13:46:11;8.60;;;4.30;;
2940;SDS011;1480;51.456;6.670;2023-11-18T13:48:39;11.80;;;5.80;;
2940;SDS011;1480;51.456;6.670;2023-11-18T13:51:07;12.20;;;4.30;;
2940;SDS011;1480;51.456;6.670;2023-11-18T13:53:38;8.67;;;4.90;;
2940;SDS011;1480;51.456;6.670;2023-11-18T13:56:06;7.13;;;4.47;;
2940;SDS011;1480;51.456;6.670;2023-11-18T13:58:34;5.70;;;4.33;;
2940;SDS011;1480;51.456;6.670;2023-11-18T14:01:04;5.27;;;4.20;;
2940;SDS011;1480;51.456;6.670;2023-11-18T14:03:32;4.93;;;3.60;;
2940;SDS011;1480;51.456;6.670;2023-11-18T14:06:00;9.00;;;3.70;;
2940;SDS011;1480;51.456;6.670;2023-11-18T14:08:27;6.37;;;3.90;;
2940;SDS011;1480;51.456;6.670;2023-11-18T14:10:54;5.20;;;3.80;;
2940;SDS011;1480;51.456;6.670;2023-11-18T14:13:21;4.90;;;3.67;;
2940;SDS011;1480;51.456;6.670;2023-11-18T14:15:48;3.60;;;2.70;;
2940;SDS011;1480;51.456;6.670;2023-11-18T14:18:20;3.73;;;2.97;;
2940;SDS011;1480;51.456;6.670;2023-11-18T14:20:47;4.80;;;3.60;;
2940;SDS011;1480;51.456;6.670;2023-11-18T14:23:16;6.03;;;4.17;;
2940;SDS011;1480;51.456;6.670;2023-11-18T14:25:43;3.87;;;3.50;;
2940;SDS011;1480;51.456;6.670;2023-11-18T14:28:10;4.70;;;3.10;;
2940;SDS011;1480;51.456;6.670;2023-11-18T14:30:38;10.10;;;4.03;;
2940;SDS011;1480;51.456;6.670;2023-11-18T14:33:05;6.00;;;3.30;;
2940;SDS011;1480;51.456;6.670;2023-11-18T14:35:32;11.00;;;4.90;;
2940;SDS011;1480;51.456;6.670;2023-11-18T14:37:57;6.63;;;4.13;;
2940;SDS011;1480;51.456;6.670;2023-11-18T14:40:25;6.53;;;4.20;;
2940;SDS011;1480;51.456;6.670;2023-11-18T14:42:53;13.90;;;5.13;;
2940;SDS011;1480;51.456;6.670;2023-11-18T14:45:20;13.27;;;5.80;;
2940;SDS011;1480;51.456;6.670;2023-11-18T14:47:47;13.23;;;6.57;;
2940;SDS011;1480;51.456;6.670;2023-11-18T14:50:18;12.40;;;5.00;;
2940;SDS011;1480;51.456;6.670;2023-11-18T14:52:45;12.80;;;6.47;;
2940;SDS011;1480;51.456;6.670;2023-11-18T14:55:13;8.23;;;4.37;;
2940;SDS011;1480;51.456;6.670;2023-11-18T14:57:44;10.87;;;4.40;;
2940;SDS011;1480;51.456;6.670;2023-11-18T15:00:12;6.73;;;4.10;;
2940;SDS011;1480;51.456;6.670;2023-11-18T15:02:45;6.10;;;3.90;;
2940;SDS011;1480;51.456;6.670;2023-11-18T15:05:13;10.30;;;4.60;;
2940;SDS011;1480;51.456;6.670;2023-11-18T15:07:43;7.63;;;3.73;;
2940;SDS011;1480;51.456;6.670;2023-11-18T15:10:13;8.73;;;4.63;;
2940;SDS011;1480;51.456;6.670;2023-11-18T15:12:46;5.23;;;4.47;;